Time;durP1;ratioP1;P1;durP2;ratioP2;P2;SDS_P1;SDS_P2;PMS_P1;PMS_P2;Temp;Humidity;BMP_temperature;BMP_pressure;BME280_temperature;BME280_humidity;BME280_pressure;Samples;Min_cycle;Max_cycle;Signal;HPM_P1;HPM_P2
2023/09/04 00:00:43;;;;;;;2.23;2.03;;;23.40;58.90;;;;;;5054025;28;20420;-69
2023/09/04 00:03:09;;;;;;;2.30;2.10;;;23.40;58.90;;;;;;5053962;28;20282;-70
2023/09/04 00:05:35;;;;;;;2.30;2.10;;;23.40;58.90;;;;;;5053760;28;20171;-69
2023/09/04 00:08:01;;;;;;;1.90;1.80;;;23.40;58.90;;;;;;5053903;28;20185;-69
2023/09/04 00:10:27;;;;;;;1.90;1.80;;;23.40;58.90;;;;;;5053689;28;20365;-70
2023/09/04 00:12:53;;;;;;;2.07;1.87;;;23.40;58.90;;;;;;5053762;28;20523;-70
2023/09/04 00:15:18;;;;;;;2.30;2.10;;;23.40;58.90;;;;;;5053756;28;20236;-69
2023/09/04 00:17:50;;;;;;;2.20;1.80;;;23.40;58.90;;;;;;5053561;28;20207;-69
2023/09/04 00:20:16;;;;;;;2.40;2.20;;;23.40;58.90;;;;;;5053709;28;20155;-69
2023/09/04 00:22:42;;;;;;;1.73;1.63;;;23.40;58.90;;;;;;5053585;28;20925;-69
2023/09/04 00:25:08;;;;;;;2.20;1.90;;;23.40;58.90;;;;;;5053470;28;20433;-69
2023/09/04 00:27:33;;;;;;;2.27;1.80;;;23.40;59.00;;;;;;5053346;28;20214;-70
2023/09/04 00:29:59;;;;;;;2.30;2.10;;;23.40;58.90;;;;;;5053578;28;20452;-70
2023/09/04 00:32:25;;;;;;;2.53;2.17;;;23.40;58.90;;;;;;5053398;28;20170;-69
2023/09/04 00:34:50;;;;;;;2.47;2.27;;;23.40;58.90;;;;;;5035437;28;20182;-69
2023/09/04 00:37:16;;;;;;;2.27;2.07;;;23.40;59.00;;;;;;5053195;28;20277;-70
2023/09/04 00:39:42;;;;;;;1.60;1.50;;;23.40;59.00;;;;;;5053488;28;20183;-70
2023/09/04 00:42:09;;;;;;;1.80;1.70;;;23.40;59.00;;;;;;5053209;28;20648;-69
2023/09/04 00:44:34;;;;;;;2.20;2.00;;;23.40;59.00;;;;;;5053222;28;20167;-70
2023/09/04 00:47:00;;;;;;;2.00;1.73;;;23.40;59.00;;;;;;5053085;28;20441;-70
2023/09/04 00:49:28;;;;;;;2.30;2.10;;;23.40;59.00;;;;;;5053005;28;20194;-70
2023/09/04 00:51:54;;;;;;;2.30;2.10;;;23.40;59.00;;;;;;5053039;28;20194;-69
2023/09/04 00:54:20;;;;;;;2.00;1.80;;;23.40;59.00;;;;;;5053247;28;20772;-69
2023/09/04 00:56:48;;;;;;;1.97;1.80;;;23.40;58.90;;;;;;5052904;28;20439;-69
2023/09/04 00:59:14;;;;;;;1.90;1.80;;;23.40;59.00;;;;;;5052882;28;20173;-70
2023/09/04 01:01:39;;;;;;;2.20;2.00;;;23.40;59.00;;;;;;5034914;28;20418;-69
2023/09/04 01:04:05;;;;;;;2.17;1.70;;;23.40;59.00;;;;;;5052226;28;20203;-69
2023/09/04 01:06:31;;;;;;;2.20;1.70;;;23.40;59.00;;;;;;5035114;28;20511;-70
2023/09/04 01:08:57;;;;;;;1.70;1.50;;;23.40;59.00;;;;;;5052677;28;20240;-69
2023/09/04 01:11:26;;;;;;;2.50;2.03;;;23.40;59.00;;;;;;5052649;28;20254;-70
2023/09/04 01:13:54;;;;;;;2.43;1.80;;;23.40;59.00;;;;;;5052676;28;21212;-69
2023/09/04 01:16:22;;;;;;;2.10;1.90;;;23.40;59.00;;;;;;5052404;28;20512;-70
2023/09/04 01:18:48;;;;;;;2.07;1.87;;;23.40;59.00;;;;;;5052475;28;20400;-69
2023/09/04 01:21:13;;;;;;;1.93;1.80;;;23.40;59.00;;;;;;5052493;28;20749;-70
2023/09/04 01:23:39;;;;;;;1.80;1.60;;;23.40;59.00;;;;;;5052490;28;20413;-70
2023/09/04 01:26:32;;;;;;;1.80;1.70;;;23.40;58.90;;;;;;5052176;28;20190;-70
2023/09/04 01:29:16;;;;;;;1.60;1.50;;;23.40;59.00;;;;;;5052320;28;20171;-69
2023/09/04 01:31:53;;;;;;;2.17;1.80;;;23.40;58.90;;;;;;5034399;28;20418;-70
2023/09/04 01:34:24;;;;;;;1.97;1.80;;;23.40;59.00;;;;;;5052275;28;20406;-69
2023/09/04 01:36:52;;;;;;;2.30;2.10;;;23.40;59.00;;;;;;5052237;28;20422;-69
2023/09/04 01:39:19;;;;;;;2.20;2.00;;;23.40;59.00;;;;;;5052175;28;20424;-69
2023/09/04 01:41:45;;;;;;;2.60;1.97;;;23.30;58.90;;;;;;5052361;28;20439;-70
2023/09/04 01:44:13;;;;;;;2.13;1.93;;;23.40;59.00;;;;;;5051934;28;20405;-70
2023/09/04 01:46:38;;;;;;;1.90;1.80;;;23.40;59.00;;;;;;5051970;28;20209;-69
2023/09/04 01:49:04;;;;;;;2.27;1.83;;;23.40;59.00;;;;;;5051887;28;20418;-69
2023/09/04 01:51:29;;;;;;;2.03;1.83;;;23.40;59.00;;;;;;5051863;28;20236;-70
2023/09/04 01:53:55;;;;;;;1.93;1.80;;;23.40;59.00;;;;;;5051856;28;20163;-70
2023/09/04 01:56:21;;;;;;;2.10;1.90;;;23.40;59.00;;;;;;5051700;28;20225;-70
2023/09/04 01:58:46;;;;;;;2.23;1.70;;;23.40;59.00;;;;;;5051754;28;20623;-68
2023/09/04 02:01:13;;;;;;;2.07;1.87;;;23.40;59.00;;;;;;5051714;28;20256;-70
2023/09/04 02:03:38;;;;;;;2.20;1.80;;;23.40;59.00;;;;;;5051906;28;20179;-70
2023/09/04 02:06:04;;;;;;;2.03;1.83;;;23.40;59.00;;;;;;5051542;28;20948;-70
2023/09/04 02:08:30;;;;;;;1.80;1.60;;;23.40;59.00;;;;;;5051565;28;20178;-69
2023/09/04 02:10:58;;;;;;;1.97;1.77;;;23.40;59.00;;;;;;5051434;28;20628;-70
2023/09/04 02:13:23;;;;;;;1.90;1.80;;;23.40;59.50;;;;;;5051466;28;20167;-70
2023/09/04 02:15:49;;;;;;;2.17;1.97;;;23.40;59.00;;;;;;5032602;28;20925;-69
2023/09/04 02:18:15;;;;;;;1.60;1.50;;;23.40;59.00;;;;;;5051635;28;20648;-69
2023/09/04 02:20:41;;;;;;;2.07;1.87;;;23.40;59.00;;;;;;5051352;28;20462;-70
2023/09/04 02:23:06;;;;;;;1.70;1.60;;;23.40;59.00;;;;;;5051272;28;20179;-69
2023/09/04 02:25:32;;;;;;;1.87;1.70;;;23.40;59.00;;;;;;5051278;28;20258;-68
2023/09/04 02:27:58;;;;;;;1.80;1.70;;;23.40;59.00;;;;;;5051125;28;20708;-69
2023/09/04 02:30:24;;;;;;;2.13;1.93;;;23.40;59.00;;;;;;5051155;28;20576;-70
2023/09/04 02:32:49;;;;;;;1.80;1.70;;;23.40;59.00;;;;;;5051173;28;20405;-69
2023/09/04 02:35:16;;;;;;;2.33;1.60;;;23.40;59.00;;;;;;5051184;28;20175;-69
2023/09/04 02:37:43;;;;;;;4.03;2.10;;;23.40;59.00;;;;;;5051011;28;20654;-70
2023/09/04 02:40:10;;;;;;;2.17;1.97;;;23.40;59.00;;;;;;5051120;28;20424;-69
2023/09/04 02:42:35;;;;;;;1.70;1.60;;;23.40;59.00;;;;;;5050942;28;20961;-70
2023/09/04 02:45:01;;;;;;;2.10;1.80;;;23.40;59.00;;;;;;5050992;28;20555;-69
2023/09/04 02:47:27;;;;;;;2.10;1.90;;;23.40;59.00;;;;;;5050945;28;20743;-70
2023/09/04 02:49:53;;;;;;;2.97;2.10;;;23.30;58.90;;;;;;5050865;28;20195;-70
2023/09/04 02:52:18;;;;;;;1.57;1.47;;;23.40;59.00;;;;;;5050927;28;20277;-70
2023/09/04 02:54:44;;;;;;;2.27;2.00;;;23.30;58.90;;;;;;5050756;28;20179;-70
2023/09/04 02:57:10;;;;;;;2.27;2.07;;;23.30;58.80;;;;;;5050818;28;20191;-69
2023/09/04 02:59:36;;;;;;;2.00;1.80;;;23.30;58.90;;;;;;5051072;28;20179;-69
2023/09/04 03:02:02;;;;;;;1.93;1.83;;;23.30;58.90;;;;;;5050775;28;20179;-69
2023/09/04 03:04:28;;;;;;;2.00;1.73;;;23.30;58.80;;;;;;5051060;28;20491;-69
2023/09/04 03:06:54;;;;;;;1.70;1.60;;;23.30;58.80;;;;;;5050730;28;20195;-70
2023/09/04 03:09:19;;;;;;;2.30;2.07;;;23.30;58.90;;;;;;5050635;28;20471;-69
2023/09/04 03:11:45;;;;;;;2.00;1.83;;;23.30;58.90;;;;;;5050700;28;20178;-70
2023/09/04 03:14:10;;;;;;;1.87;1.67;;;23.30;58.80;;;;;;5050670;28;20171;-70
2023/09/04 03:16:36;;;;;;;2.20;1.80;;;23.30;59.40;;;;;;5050860;28;20924;-69
2023/09/04 03:19:02;;;;;;;2.20;2.00;;;23.30;58.90;;;;;;5050556;28;20190;-70
2023/09/04 03:21:28;;;;;;;2.00;1.77;;;23.30;58.90;;;;;;5050667;28;20206;-69
2023/09/04 03:23:53;;;;;;;1.80;1.70;;;23.30;58.80;;;;;;5050596;28;20217;-70
2023/09/04 03:26:19;;;;;;;2.17;1.97;;;23.30;58.90;;;;;;5050823;28;20977;-69
2023/09/04 03:28:45;;;;;;;2.20;2.00;;;23.30;58.90;;;;;;5054677;28;20231;-69
2023/09/04 03:31:14;;;;;;;2.10;1.90;;;23.30;58.90;;;;;;5054791;28;20211;-69
2023/09/04 03:33:40;;;;;;;2.40;2.20;;;23.30;58.90;;;;;;5054568;28;20171;-69
2023/09/04 03:36:06;;;;;;;1.97;1.87;;;23.30;58.90;;;;;;5054401;28;20496;-70
2023/09/04 03:38:31;;;;;;;1.70;1.60;;;23.30;58.90;;;;;;5054424;28;20421;-69
2023/09/04 03:40:57;;;;;;;1.83;1.70;;;23.30;58.90;;;;;;5054641;28;20588;-69
2023/09/04 03:43:23;;;;;;;1.70;1.47;;;23.30;58.90;;;;;;5054287;28;20214;-70
2023/09/04 03:45:48;;;;;;;1.73;1.63;;;23.30;58.90;;;;;;5054249;28;20178;-70
2023/09/04 03:48:14;;;;;;;1.70;1.60;;;23.30;58.90;;;;;;5054186;28;20178;-69
2023/09/04 03:50:39;;;;;;;2.20;2.00;;;23.30;58.90;;;;;;5054136;28;20202;-69
2023/09/04 03:53:05;;;;;;;1.77;1.67;;;23.30;58.90;;;;;;5054174;28;20254;-70
2023/09/04 03:55:31;;;;;;;2.20;1.97;;;23.30;58.90;;;;;;5054102;28;20175;-69
2023/09/04 03:57:58;;;;;;;2.00;1.90;;;23.30;58.80;;;;;;5054221;28;20195;-69
2023/09/04 04:00:24;;;;;;;1.77;1.57;;;23.30;58.90;;;;;;5054008;28;20543;-70
2023/09/04 04:02:51;;;;;;;2.33;2.13;;;23.30;58.90;;;;;;5053961;28;20416;-70
2023/09/04 04:05:17;;;;;;;1.80;1.70;;;23.30;58.80;;;;;;5053858;28;20187;-68
2023/09/04 04:07:44;;;;;;;1.73;1.60;;;23.30;58.90;;;;;;5054076;28;20521;-69
2023/09/04 04:10:10;;;;;;;2.03;1.70;;;23.30;58.90;;;;;;5053771;28;20456;-69
2023/09/04 04:12:36;;;;;;;1.87;1.67;;;23.30;58.90;;;;;;5053852;28;20464;-67
2023/09/04 04:15:05;;;;;;;2.20;2.00;;;23.30;58.90;;;;;;5053769;28;20405;-69
2023/09/04 04:17:32;;;;;;;2.10;1.90;;;23.30;58.80;;;;;;5019688;28;20211;-69
2023/09/04 04:19:57;;;;;;;1.90;1.80;;;23.30;58.90;;;;;;5053697;28;20417;-69
2023/09/04 04:22:23;;;;;;;1.77;1.67;;;23.30;58.80;;;;;;5053552;28;20405;-69
2023/09/04 04:24:52;;;;;;;1.90;1.80;;;23.30;58.80;;;;;;5053594;28;20522;-69
2023/09/04 04:27:18;;;;;;;1.83;1.73;;;23.30;58.80;;;;;;5035326;28;20480;-69
2023/09/04 04:29:44;;;;;;;2.23;2.03;;;23.30;58.90;;;;;;5053563;28;20953;-69
2023/09/04 04:32:10;;;;;;;2.23;2.03;;;23.30;58.90;;;;;;5053306;28;20420;-70
2023/09/04 04:34:36;;;;;;;2.17;1.90;;;23.30;58.80;;;;;;5053433;28;20906;-69
2023/09/04 04:37:01;;;;;;;1.83;1.70;;;23.30;58.80;;;;;;5053250;28;20195;-69
2023/09/04 04:39:27;;;;;;;2.20;2.00;;;23.30;58.90;;;;;;5052296;28;20186;-69
2023/09/04 04:41:53;;;;;;;2.00;1.80;;;23.30;58.90;;;;;;5053191;28;20274;-68
2023/09/04 04:44:19;;;;;;;1.93;1.80;;;23.30;58.80;;;;;;5053143;28;20183;-70
2023/09/04 04:46:47;;;;;;;1.80;1.70;;;23.30;58.80;;;;;;5053031;28;20267;-69
2023/09/04 04:49:17;;;;;;;2.00;1.80;;;23.30;58.90;;;;;;5053090;28;20222;-69
2023/09/04 04:51:43;;;;;;;2.23;1.70;;;23.30;58.90;;;;;;5053078;28;20417;-69
2023/09/04 04:54:08;;;;;;;2.77;2.57;;;23.30;58.80;;;;;;5053008;28;20457;-69
2023/09/04 04:56:34;;;;;;;2.00;1.80;;;23.30;58.90;;;;;;5053177;28;20221;-69
2023/09/04 04:59:00;;;;;;;1.83;1.70;;;23.30;58.90;;;;;;5052955;28;20175;-67
2023/09/04 05:01:25;;;;;;;1.80;1.70;;;23.30;58.90;;;;;;5052914;28;20183;-69
2023/09/04 05:03:51;;;;;;;2.20;2.10;;;23.30;58.90;;;;;;5052874;28;20175;-68
2023/09/04 05:06:16;;;;;;;2.00;1.80;;;23.30;58.90;;;;;;5052759;28;20738;-68
2023/09/04 05:08:42;;;;;;;3.80;2.00;;;23.30;58.90;;;;;;5053004;28;20205;-69
2023/09/04 05:11:08;;;;;;;2.03;1.83;;;23.30;58.90;;;;;;5052914;28;20201;-69
2023/09/04 05:13:33;;;;;;;1.83;1.67;;;23.30;58.90;;;;;;5052694;28;20258;-69
2023/09/04 05:16:03;;;;;;;1.83;1.73;;;23.30;58.90;;;;;;5052480;28;20183;-69
2023/09/04 05:18:30;;;;;;;2.00;1.80;;;23.30;58.90;;;;;;5052780;28;20262;-69
2023/09/04 05:20:55;;;;;;;1.80;1.70;;;23.30;58.90;;;;;;5052539;28;20993;-68
2023/09/04 05:23:22;;;;;;;2.20;1.63;;;23.30;58.90;;;;;;5052572;28;20512;-69
2023/09/04 05:25:51;;;;;;;2.30;2.07;;;23.30;58.90;;;;;;5052636;28;20167;-67
2023/09/04 05:28:17;;;;;;;1.83;1.73;;;23.30;58.90;;;;;;5052289;28;20886;-68
2023/09/04 05:30:43;;;;;;;1.60;1.43;;;23.30;58.80;;;;;;5052267;28;20540;-69
2023/09/04 05:33:08;;;;;;;1.70;1.60;;;23.30;58.90;;;;;;5052279;28;20171;-70
2023/09/04 05:35:34;;;;;;;1.67;1.57;;;23.30;58.90;;;;;;5052142;28;20179;-68
2023/09/04 05:38:00;;;;;;;1.80;1.70;;;23.30;58.90;;;;;;5034261;28;20286;-69
2023/09/04 05:40:26;;;;;;;1.97;1.80;;;23.30;58.90;;;;;;5052669;28;20177;-69
2023/09/04 05:42:52;;;;;;;2.13;1.93;;;23.30;58.90;;;;;;5052171;28;20501;-69
2023/09/04 05:45:19;;;;;;;1.87;1.73;;;23.30;58.90;;;;;;5052082;28;20175;-69
2023/09/04 05:47:46;;;;;;;1.70;1.60;;;23.30;58.90;;;;;;5051949;28;20537;-69
2023/09/04 05:50:12;;;;;;;1.83;1.57;;;23.30;58.90;;;;;;5052369;28;20449;-70
2023/09/04 05:52:38;;;;;;;1.60;1.50;;;23.30;58.90;;;;;;5051895;28;20476;-70
2023/09/04 05:55:04;;;;;;;1.90;1.80;;;23.30;59.40;;;;;;5051959;28;20410;-68
2023/09/04 05:57:29;;;;;;;1.70;1.60;;;23.30;58.80;;;;;;5051704;28;20187;-69
2023/09/04 05:59:55;;;;;;;1.97;1.83;;;23.30;58.90;;;;;;5051754;28;20467;-70
2023/09/04 06:02:21;;;;;;;1.90;1.80;;;23.30;58.90;;;;;;5051695;28;20175;-69
2023/09/04 06:04:46;;;;;;;1.70;1.60;;;23.30;59.50;;;;;;5051666;28;20280;-69
2023/09/04 06:07:14;;;;;;;1.70;1.60;;;23.30;58.90;;;;;;5051574;28;20206;-69
2023/09/04 06:09:40;;;;;;;1.90;1.70;;;23.30;58.90;;;;;;5051548;28;20229;-69
2023/09/04 06:12:08;;;;;;;1.90;1.50;;;23.30;59.00;;;;;;5051474;28;20909;-69
2023/09/04 06:14:34;;;;;;;2.20;2.00;;;23.30;58.90;;;;;;5051432;28;20421;-68
2023/09/04 06:17:00;;;;;;;2.17;2.03;;;23.30;58.90;;;;;;5033420;28;20536;-69
2023/09/04 06:19:27;;;;;;;2.53;2.00;;;23.30;58.90;;;;;;5033238;28;20420;-70
2023/09/04 06:21:54;;;;;;;1.87;1.70;;;23.30;58.90;;;;;;5051610;28;20183;-68
2023/09/04 06:24:19;;;;;;;1.97;1.80;;;23.30;58.90;;;;;;5051247;28;20417;-70
2023/09/04 06:26:45;;;;;;;2.40;1.87;;;23.30;58.90;;;;;;5051195;28;20502;-69
2023/09/04 06:29:11;;;;;;;1.70;1.60;;;23.30;58.90;;;;;;5051213;28;20159;-68
2023/09/04 06:31:36;;;;;;;1.70;1.60;;;23.30;58.90;;;;;;5051170;28;20317;-69
2023/09/04 06:34:03;;;;;;;1.77;1.67;;;23.30;58.90;;;;;;5051415;28;20178;-69
2023/09/04 06:36:29;;;;;;;1.90;1.80;;;23.30;58.90;;;;;;5051013;28;20609;-68
2023/09/04 06:38:55;;;;;;;2.20;2.00;;;23.30;58.90;;;;;;5051059;28;20480;-69
2023/09/04 06:41:21;;;;;;;1.60;1.50;;;23.30;58.90;;;;;;5051016;28;20406;-69
2023/09/04 06:43:47;;;;;;;1.70;1.60;;;23.30;58.90;;;;;;5051190;28;20181;-69
2023/09/04 06:46:13;;;;;;;2.33;2.13;;;23.30;58.90;;;;;;5050905;28;20961;-70
2023/09/04 06:48:39;;;;;;;2.07;1.87;;;23.30;58.90;;;;;;5051057;28;20416;-69
2023/09/04 06:51:05;;;;;;;1.77;1.67;;;23.30;58.90;;;;;;5050893;28;20441;-70
2023/09/04 06:53:30;;;;;;;1.93;1.80;;;23.30;58.90;;;;;;5050925;28;20305;-69
2023/09/04 06:55:56;;;;;;;2.20;2.00;;;23.30;58.90;;;;;;5050693;28;20244;-69
2023/09/04 06:58:22;;;;;;;2.30;2.10;;;23.30;58.90;;;;;;5051048;28;20190;-68
2023/09/04 07:00:48;;;;;;;3.07;2.67;;;23.30;58.90;;;;;;5050514;28;20250;-71
2023/09/04 07:03:13;;;;;;;2.00;1.77;;;23.30;58.90;;;;;;5050823;28;20651;-68
2023/09/04 07:05:39;;;;;;;2.27;2.03;;;23.30;58.90;;;;;;5032686;28;20171;-69
2023/09/04 07:08:05;;;;;;;2.00;1.70;;;23.30;58.90;;;;;;5050771;28;20519;-69
2023/09/04 07:10:31;;;;;;;2.13;1.87;;;23.30;58.90;;;;;;5050639;28;20260;-67
2023/09/04 07:13:00;;;;;;;2.53;1.90;;;23.30;58.90;;;;;;5050715;28;20402;-70
2023/09/04 07:15:25;;;;;;;2.07;1.87;;;23.30;58.90;;;;;;5050688;28;20855;-69
2023/09/04 07:17:51;;;;;;;2.30;1.70;;;23.30;59.00;;;;;;5050600;28;20476;-68
2023/09/04 07:20:17;;;;;;;2.00;1.80;;;23.30;58.90;;;;;;5050642;28;20179;-68
2023/09/04 07:22:43;;;;;;;2.30;2.00;;;23.30;59.00;;;;;;5050874;28;20179;-69
2023/09/04 07:25:09;;;;;;;1.70;1.60;;;23.30;58.90;;;;;;5050513;28;20409;-70
2023/09/04 07:27:35;;;;;;;2.37;2.17;;;23.30;59.00;;;;;;5050386;28;20206;-69
2023/09/04 07:30:00;;;;;;;1.63;1.53;;;23.30;59.00;;;;;;5050483;28;20531;-69
2023/09/04 07:32:26;;;;;;;1.80;1.70;;;23.30;59.00;;;;;;5050492;28;20640;-70
2023/09/04 07:34:56;;;;;;;2.10;1.90;;;23.30;59.00;;;;;;5050519;28;20180;-69
2023/09/04 07:37:26;;;;;;;1.67;1.57;;;23.30;59.00;;;;;;5050470;28;20193;-69
2023/09/04 07:39:53;;;;;;;1.70;1.60;;;23.30;59.00;;;;;;5050528;28;20851;-69
2023/09/04 07:42:18;;;;;;;2.40;1.73;;;23.30;58.90;;;;;;5050389;28;20467;-70
2023/09/04 07:44:44;;;;;;;1.97;1.77;;;23.30;59.00;;;;;;5050522;28;20406;-69
2023/09/04 07:47:10;;;;;;;2.23;1.77;;;23.30;59.00;;;;;;5050378;28;20444;-69
2023/09/04 07:49:35;;;;;;;2.40;2.20;;;23.30;59.60;;;;;;5050515;28;20195;-70
2023/09/04 07:52:01;;;;;;;2.03;1.83;;;23.30;59.00;;;;;;5050385;28;20659;-69
2023/09/04 07:54:26;;;;;;;2.23;2.07;;;23.30;59.00;;;;;;5050540;28;20176;-69
2023/09/04 07:56:52;;;;;;;2.00;1.80;;;23.30;59.10;;;;;;5050218;28;20660;-69
2023/09/04 07:59:18;;;;;;;1.80;1.70;;;23.30;59.00;;;;;;5050398;28;20167;-70
2023/09/04 08:01:43;;;;;;;2.13;1.93;;;23.30;59.00;;;;;;5050276;28;20257;-69
2023/09/04 08:04:09;;;;;;;2.20;2.00;;;23.30;59.10;;;;;;5032270;28;20193;-69
2023/09/04 08:06:35;;;;;;;1.97;1.77;;;23.30;59.10;;;;;;5050169;28;20194;-69
2023/09/04 08:09:01;;;;;;;2.50;2.10;;;23.30;59.10;;;;;;5050055;28;20930;-70
2023/09/04 08:11:26;;;;;;;1.70;1.60;;;23.30;59.00;;;;;;5050016;28;20441;-70
2023/09/04 08:13:52;;;;;;;2.03;1.60;;;23.30;59.00;;;;;;5051864;28;20174;-68
2023/09/04 08:16:18;;;;;;;2.30;1.63;;;23.30;59.10;;;;;;5054005;28;20210;-70
2023/09/04 08:18:43;;;;;;;1.97;1.70;;;23.30;59.00;;;;;;5053561;28;20273;-69
2023/09/04 08:21:09;;;;;;;2.00;1.90;;;23.30;59.00;;;;;;5053497;28;20195;-69
2023/09/04 08:23:35;;;;;;;1.63;1.53;;;23.30;59.10;;;;;;5051073;28;20179;-69
2023/09/04 08:26:02;;;;;;;1.87;1.77;;;23.30;59.00;;;;;;5053529;28;20195;-69
2023/09/04 08:28:28;;;;;;;2.00;1.83;;;23.30;59.10;;;;;;5054232;28;20181;-70
2023/09/04 08:30:54;;;;;;;1.77;1.67;;;23.30;59.10;;;;;;5053833;28;20449;-69
2023/09/04 08:33:21;;;;;;;2.20;1.80;;;23.30;59.10;;;;;;5054324;28;20202;-69
2023/09/04 08:35:47;;;;;;;1.73;1.63;;;23.30;59.10;;;;;;5053855;28;20413;-68
2023/09/04 08:38:12;;;;;;;1.53;1.43;;;23.30;59.10;;;;;;5050212;28;20428;-69
2023/09/04 08:40:40;;;;;;;2.07;1.87;;;23.30;59.10;;;;;;5053236;28;20175;-69
2023/09/04 08:43:07;;;;;;;1.63;1.53;;;23.30;59.10;;;;;;5052360;28;20179;-68
2023/09/04 08:45:35;;;;;;;1.57;1.47;;;23.40;59.20;;;;;;5053452;28;20436;-70
2023/09/04 08:48:02;;;;;;;2.20;2.00;;;23.30;59.10;;;;;;5034474;28;20453;-70
2023/09/04 08:50:29;;;;;;;1.90;1.80;;;23.30;59.10;;;;;;5034830;28;20506;-69
2023/09/04 08:52:55;;;;;;;1.77;1.67;;;23.30;59.10;;;;;;5052657;28;20835;-69
2023/09/04 08:55:21;;;;;;;1.90;1.70;;;23.30;59.10;;;;;;5052576;28;20422;-69
2023/09/04 08:57:47;;;;;;;1.73;1.63;;;23.40;59.20;;;;;;5034794;28;20199;-68
2023/09/04 09:00:14;;;;;;;1.87;1.70;;;23.30;59.10;;;;;;5049958;28;21050;-72
2023/09/04 09:02:42;;;;;;;1.93;1.57;;;23.30;59.10;;;;;;5051588;28;20432;-70
2023/09/04 09:05:09;;;;;;;2.40;1.80;;;23.40;59.10;;;;;;5051873;28;20409;-69
2023/09/04 09:07:39;;;;;;;1.70;1.60;;;23.30;59.10;;;;;;5051996;28;20439;-70
2023/09/04 09:10:07;;;;;;;2.50;2.27;;;23.40;59.10;;;;;;5051415;28;20515;-68
2023/09/04 09:12:33;;;;;;;1.80;1.70;;;23.40;59.20;;;;;;5052567;28;20477;-68
2023/09/04 09:14:59;;;;;;;1.53;1.43;;;23.40;59.20;;;;;;5034839;28;20413;-70
2023/09/04 09:17:26;;;;;;;1.50;1.40;;;23.40;59.20;;;;;;5052387;28;20194;-70
2023/09/04 09:19:51;;;;;;;1.77;1.67;;;23.40;59.20;;;;;;5052486;28;20410;-69
2023/09/04 09:22:21;;;;;;;2.43;1.63;;;23.40;59.20;;;;;;5052426;28;20398;-69
2023/09/04 09:24:50;;;;;;;1.90;1.57;;;23.40;59.20;;;;;;5051933;28;20260;-69
2023/09/04 09:27:18;;;;;;;4.23;2.07;;;23.40;59.20;;;;;;5034054;28;20480;-69
2023/09/04 09:29:45;;;;;;;1.73;1.60;;;23.40;59.20;;;;;;5052149;28;21056;-69
2023/09/04 09:32:11;;;;;;;2.17;1.70;;;23.40;59.20;;;;;;5052303;28;20424;-70
2023/09/04 09:34:38;;;;;;;1.67;1.57;;;23.40;59.20;;;;;;5051791;28;20414;-70
2023/09/04 09:37:05;;;;;;;2.03;1.83;;;23.40;59.20;;;;;;5051471;28;20244;-69
2023/09/04 09:39:33;;;;;;;1.80;1.70;;;23.40;59.20;;;;;;5051565;28;20467;-70
2023/09/04 09:42:00;;;;;;;2.60;2.40;;;23.40;59.20;;;;;;5051476;28;20413;-69
2023/09/04 09:44:31;;;;;;;2.30;2.10;;;23.40;59.20;;;;;;5049021;28;20508;-68
2023/09/04 09:46:57;;;;;;;2.20;1.73;;;23.40;59.70;;;;;;5052087;28;20507;-70
2023/09/04 09:49:26;;;;;;;1.77;1.60;;;23.40;59.20;;;;;;5052130;28;20489;-69
2023/09/04 09:51:55;;;;;;;3.00;1.60;;;23.40;59.20;;;;;;5052103;28;20405;-69
2023/09/04 09:54:43;;;;;;;2.23;1.80;;;23.40;59.20;;;;;;5051910;28;20417;-68
2023/09/04 09:57:14;;;;;;;2.03;1.83;;;23.40;59.10;;;;;;5051732;28;20465;-70
2023/09/04 09:59:45;;;;;;;1.73;1.63;;;23.40;59.20;;;;;;5051837;28;20401;-69
2023/09/04 10:02:24;;;;;;;2.00;1.80;;;23.40;59.20;;;;;;5051658;28;20418;-69
2023/09/04 10:04:51;;;;;;;1.60;1.50;;;23.40;59.20;;;;;;5051710;28;20410;-70
2023/09/04 10:07:20;;;;;;;1.97;1.80;;;23.40;59.20;;;;;;5051593;28;20437;-69
2023/09/04 10:09:51;;;;;;;1.60;1.50;;;23.40;59.20;;;;;;5051491;28;20502;-69
2023/09/04 10:12:43;;;;;;;1.83;1.57;;;23.40;59.20;;;;;;5050863;28;20437;-69
2023/09/04 10:15:13;;;;;;;1.90;1.60;;;23.40;59.20;;;;;;5051548;28;20384;-69
2023/09/04 10:17:49;;;;;;;2.00;1.80;;;23.40;59.20;;;;;;5051300;28;20556;-70
2023/09/04 10:20:15;;;;;;;1.67;1.50;;;23.40;59.20;;;;;;5051394;28;20480;-69
2023/09/04 10:22:49;;;;;;;1.83;1.73;;;23.40;59.20;;;;;;5051366;28;20509;-69
2023/09/04 10:25:37;;;;;;;1.93;1.73;;;23.40;59.20;;;;;;5051329;28;20186;-69
2023/09/04 10:28:41;;;;;;;1.70;1.47;;;23.40;59.20;;;;;;5051020;28;20803;-69
2023/09/04 10:31:07;;;;;;;2.80;1.70;;;23.40;59.20;;;;;;5047637;28;20461;-70
2023/09/04 10:33:35;;;;;;;2.33;1.53;;;23.40;59.30;;;;;;5050209;28;20413;-70
2023/09/04 10:36:01;;;;;;;1.80;1.60;;;23.40;59.30;;;;;;5050281;28;20457;-67
2023/09/04 10:38:27;;;;;;;1.73;1.50;;;23.40;59.20;;;;;;5051032;28;20406;-69
2023/09/04 10:40:53;;;;;;;1.93;1.77;;;23.40;59.20;;;;;;5051024;28;20409;-68
2023/09/04 10:43:22;;;;;;;1.67;1.57;;;23.40;59.30;;;;;;5050763;28;20417;-69
2023/09/04 10:46:13;;;;;;;2.17;1.97;;;23.40;59.20;;;;;;5050431;28;20478;-69
2023/09/04 10:48:52;;;;;;;2.77;1.83;;;23.40;59.20;;;;;;5048731;28;20429;-69
2023/09/04 10:51:37;;;;;;;1.87;1.77;;;23.40;59.20;;;;;;5049275;28;20496;-69
2023/09/04 10:54:19;;;;;;;1.57;1.47;;;23.40;59.20;;;;;;5050488;28;21012;-68
2023/09/04 10:56:58;;;;;;;1.80;1.60;;;23.40;59.20;;;;;;5031993;28;20425;-71
2023/09/04 10:59:25;;;;;;;2.37;2.07;;;23.40;59.30;;;;;;5050774;28;20416;-70
2023/09/04 11:01:51;;;;;;;1.70;1.60;;;23.40;59.30;;;;;;5032515;28;20448;-69
2023/09/04 11:04:46;;;;;;;2.07;1.87;;;23.40;59.20;;;;;;5050719;28;20870;-69
2023/09/04 11:07:20;;;;;;;1.40;1.30;;;23.40;59.20;;;;;;5029468;28;20516;-70
2023/09/04 11:10:13;;;;;;;1.93;1.73;;;23.40;59.20;;;;;;5050554;28;20463;-69
2023/09/04 11:12:39;;;;;;;1.80;1.30;;;23.40;59.20;;;;;;5032899;28;20514;-70
2023/09/04 11:15:14;;;;;;;1.83;1.73;;;23.40;59.20;;;;;;5050543;28;20793;-69
2023/09/04 11:17:44;;;;;;;1.33;1.23;;;23.40;59.20;;;;;;5050480;28;20416;-69
2023/09/04 11:20:14;;;;;;;2.20;2.00;;;23.40;59.20;;;;;;5050518;28;20428;-69
2023/09/04 11:22:44;;;;;;;1.93;1.77;;;23.40;59.20;;;;;;5050807;28;20429;-69
2023/09/04 11:25:10;;;;;;;1.80;1.70;;;23.40;59.20;;;;;;5050595;28;20398;-69
2023/09/04 11:27:35;;;;;;;1.77;1.67;;;23.40;59.20;;;;;;5050255;28;20445;-69
2023/09/04 11:30:01;;;;;;;1.67;1.57;;;23.40;59.20;;;;;;5050368;28;20203;-68
2023/09/04 11:32:28;;;;;;;1.70;1.60;;;23.40;59.20;;;;;;5032440;28;20266;-70
2023/09/04 11:34:55;;;;;;;1.43;1.33;;;23.40;59.70;;;;;;5032449;28;20786;-70
2023/09/04 11:37:20;;;;;;;2.13;1.60;;;23.40;59.10;;;;;;5050340;28;20440;-68
2023/09/04 11:39:58;;;;;;;2.23;2.03;;;23.40;59.20;;;;;;5050468;28;20415;-70
2023/09/04 11:42:24;;;;;;;1.70;1.47;;;23.40;59.10;;;;;;5050332;28;20181;-69
2023/09/04 11:44:51;;;;;;;1.60;1.50;;;23.40;59.20;;;;;;5050323;28;20413;-70
2023/09/04 11:47:21;;;;;;;2.10;1.70;;;23.40;59.20;;;;;;5050831;28;20443;-69
2023/09/04 11:49:47;;;;;;;1.97;1.77;;;23.40;59.10;;;;;;5054143;28;20463;-69
2023/09/04 11:52:16;;;;;;;1.87;1.70;;;23.40;59.20;;;;;;5054120;28;20902;-70
2023/09/04 11:54:43;;;;;;;1.60;1.50;;;23.40;59.10;;;;;;5054711;28;20167;-69
2023/09/04 11:57:09;;;;;;;1.90;1.80;;;23.40;59.10;;;;;;5054018;28;20841;-69
2023/09/04 11:59:36;;;;;;;2.07;1.87;;;23.40;59.10;;;;;;5053996;28;20413;-69
2023/09/04 12:02:07;;;;;;;1.73;1.60;;;23.40;59.10;;;;;;5054030;28;20504;-69
2023/09/04 12:04:33;;;;;;;1.90;1.80;;;23.40;59.10;;;;;;5054246;28;20448;-68
2023/09/04 12:07:03;;;;;;;3.97;1.50;;;23.40;59.20;;;;;;5053894;28;20984;-68
2023/09/04 12:09:29;;;;;;;1.43;1.33;;;23.40;59.10;;;;;;5053780;28;20409;-68
2023/09/04 12:11:55;;;;;;;1.60;1.50;;;23.40;59.10;;;;;;5053830;28;20474;-69
2023/09/04 12:14:21;;;;;;;1.77;1.67;;;23.40;59.10;;;;;;5053999;28;20402;-70
2023/09/04 12:16:47;;;;;;;1.87;1.37;;;23.40;59.10;;;;;;5035616;28;20997;-67
2023/09/04 12:19:15;;;;;;;1.63;1.53;;;23.40;59.10;;;;;;5035613;28;20421;-70
2023/09/04 12:21:41;;;;;;;1.80;1.60;;;23.40;59.10;;;;;;5053670;28;20494;-67
2023/09/04 12:24:16;;;;;;;1.67;1.57;;;23.40;59.10;;;;;;5053580;28;20433;-69
2023/09/04 12:26:42;;;;;;;1.67;1.57;;;23.50;59.20;;;;;;5053362;28;20293;-69
2023/09/04 12:29:11;;;;;;;1.83;1.43;;;23.40;59.10;;;;;;5053217;28;20424;-69
2023/09/04 12:31:37;;;;;;;1.90;1.80;;;23.40;59.10;;;;;;5035336;28;20429;-70
2023/09/04 12:34:04;;;;;;;2.10;1.50;;;23.40;59.10;;;;;;5053612;28;20450;-70
2023/09/04 12:36:32;;;;;;;1.70;1.60;;;23.40;59.10;;;;;;5053366;28;20787;-69
2023/09/04 12:38:58;;;;;;;1.37;1.20;;;23.40;59.10;;;;;;5053263;28;20447;-70
2023/09/04 12:41:23;;;;;;;1.63;1.50;;;23.40;59.00;;;;;;5053499;28;20501;-68
2023/09/04 12:43:49;;;;;;;1.70;1.60;;;23.40;59.10;;;;;;5053230;28;20590;-67
2023/09/04 12:46:14;;;;;;;1.90;1.80;;;23.40;59.10;;;;;;5035185;28;20198;-69
2023/09/04 12:48:44;;;;;;;1.97;1.70;;;23.50;59.20;;;;;;5053102;28;20178;-70